sensor_id;sensor_type;location;lat;lon;timestamp;P1;durP1;ratioP1;P2;durP2;ratioP2
49834;SDS011;35729;52.090;13.162;2022-08-25T00:00:05;8.93;;;7.70;;
49834;SDS011;35729;52.090;13.162;2022-08-25T00:02:35;14.02;;;8.40;;
49834;SDS011;35729;52.090;13.162;2022-08-25T00:05:04;11.43;;;8.10;;
49834;SDS011;35729;52.090;13.162;2022-08-25T00:07:32;10.32;;;8.23;;
49834;SDS011;35729;52.090;13.162;2022-08-25T00:10:04;15.68;;;8.82;;
49834;SDS011;35729;52.090;13.162;2022-08-25T00:12:33;10.93;;;8.27;;
49834;SDS011;35729;52.090;13.162;2022-08-25T00:15:02;15.20;;;8.40;;
49834;SDS011;35729;52.090;13.162;2022-08-25T00:17:31;8.93;;;7.28;;
49834;SDS011;35729;52.090;13.162;2022-08-25T00:19:59;12.73;;;8.55;;
49834;SDS011;35729;52.090;13.162;2022-08-25T00:22:28;12.18;;;9.02;;
49834;SDS011;35729;52.090;13.162;2022-08-25T00:24:56;13.13;;;8.70;;
49834;SDS011;35729;52.090;13.162;2022-08-25T00:27:28;11.25;;;8.95;;
49834;SDS011;35729;52.090;13.162;2022-08-25T00:29:56;12.85;;;8.73;;
49834;SDS011;35729;52.090;13.162;2022-08-25T00:32:25;12.68;;;8.73;;
49834;SDS011;35729;52.090;13.162;2022-08-25T00:34:53;8.82;;;8.02;;
49834;SDS011;35729;52.090;13.162;2022-08-25T00:37:22;14.25;;;9.82;;
49834;SDS011;35729;52.090;13.162;2022-08-25T00:39:51;12.30;;;8.93;;
49834;SDS011;35729;52.090;13.162;2022-08-25T00:42:21;9.02;;;8.05;;
49834;SDS011;35729;52.090;13.162;2022-08-25T00:44:52;11.75;;;8.82;;
49834;SDS011;35729;52.090;13.162;2022-08-25T00:47:21;9.40;;;7.93;;
49834;SDS011;35729;52.090;13.162;2022-08-25T00:49:50;12.88;;;9.32;;
49834;SDS011;35729;52.090;13.162;2022-08-25T00:52:24;12.70;;;9.57;;
49834;SDS011;35729;52.090;13.162;2022-08-25T00:54:57;10.80;;;9.80;;
49834;SDS011;35729;52.090;13.162;2022-08-25T00:57:32;12.90;;;9.02;;
49834;SDS011;35729;52.090;13.162;2022-08-25T01:00:08;14.63;;;9.70;;
49834;SDS011;35729;52.090;13.162;2022-08-25T01:02:41;10.93;;;9.00;;
49834;SDS011;35729;52.090;13.162;2022-08-25T01:05:10;12.48;;;9.40;;
49834;SDS011;35729;52.090;13.162;2022-08-25T01:07:39;10.25;;;8.80;;
49834;SDS011;35729;52.090;13.162;2022-08-25T01:10:10;14.65;;;8.85;;
49834;SDS011;35729;52.090;13.162;2022-08-25T01:12:40;10.50;;;9.30;;
49834;SDS011;35729;52.090;13.162;2022-08-25T01:15:12;11.75;;;8.93;;
49834;SDS011;35729;52.090;13.162;2022-08-25T01:17:44;12.80;;;9.23;;
49834;SDS011;35729;52.090;13.162;2022-08-25T01:20:15;13.77;;;9.38;;
49834;SDS011;35729;52.090;13.162;2022-08-25T01:23:07;10.73;;;9.57;;
49834;SDS011;35729;52.090;13.162;2022-08-25T01:25:49;12.23;;;10.48;;
49834;SDS011;35729;52.090;13.162;2022-08-25T01:28:23;13.32;;;10.23;;
49834;SDS011;35729;52.090;13.162;2022-08-25T01:30:52;14.23;;;10.73;;
49834;SDS011;35729;52.090;13.162;2022-08-25T01:33:20;17.23;;;10.60;;
49834;SDS011;35729;52.090;13.162;2022-08-25T01:35:49;11.45;;;9.77;;
49834;SDS011;35729;52.090;13.162;2022-08-25T01:38:20;12.48;;;11.05;;
49834;SDS011;35729;52.090;13.162;2022-08-25T01:40:49;15.32;;;10.48;;
49834;SDS011;35729;52.090;13.162;2022-08-25T01:43:20;14.95;;;10.23;;
49834;SDS011;35729;52.090;13.162;2022-08-25T01:45:54;14.68;;;12.45;;
49834;SDS011;35729;52.090;13.162;2022-08-25T01:48:23;12.35;;;10.52;;
49834;SDS011;35729;52.090;13.162;2022-08-25T01:50:51;11.10;;;10.00;;
49834;SDS011;35729;52.090;13.162;2022-08-25T01:53:25;14.73;;;10.90;;
49834;SDS011;35729;52.090;13.162;2022-08-25T01:55:55;13.50;;;10.70;;
49834;SDS011;35729;52.090;13.162;2022-08-25T01:58:27;15.60;;;11.55;;
49834;SDS011;35729;52.090;13.162;2022-08-25T02:00:58;13.68;;;10.73;;
49834;SDS011;35729;52.090;13.162;2022-08-25T02:03:28;13.75;;;11.65;;
49834;SDS011;35729;52.090;13.162;2022-08-25T02:05:57;13.73;;;10.52;;
49834;SDS011;35729;52.090;13.162;2022-08-25T02:08:29;14.60;;;10.40;;
49834;SDS011;35729;52.090;13.162;2022-08-25T02:10:58;11.85;;;10.57;;
49834;SDS011;35729;52.090;13.162;2022-08-25T02:13:27;14.18;;;11.40;;
49834;SDS011;35729;52.090;13.162;2022-08-25T02:15:56;11.98;;;10.10;;
49834;SDS011;35729;52.090;13.162;2022-08-25T02:18:26;13.75;;;11.32;;
49834;SDS011;35729;52.090;13.162;2022-08-25T02:20:55;12.55;;;9.68;;
49834;SDS011;35729;52.090;13.162;2022-08-25T02:23:24;14.15;;;10.32;;
49834;SDS011;35729;52.090;13.162;2022-08-25T02:25:55;12.10;;;10.88;;
49834;SDS011;35729;52.090;13.162;2022-08-25T02:28:24;13.13;;;11.45;;
49834;SDS011;35729;52.090;13.162;2022-08-25T02:30:53;13.77;;;11.10;;
49834;SDS011;35729;52.090;13.162;2022-08-25T02:33:21;14.10;;;11.05;;
49834;SDS011;35729;52.090;13.162;2022-08-25T02:35:50;15.73;;;11.60;;
49834;SDS011;35729;52.090;13.162;2022-08-25T02:38:18;11.93;;;10.30;;
49834;SDS011;35729;52.090;13.162;2022-08-25T02:40:47;15.52;;;10.68;;
49834;SDS011;35729;52.090;13.162;2022-08-25T02:43:19;12.48;;;11.18;;
49834;SDS011;35729;52.090;13.162;2022-08-25T02:45:47;14.07;;;11.63;;
49834;SDS011;35729;52.090;13.162;2022-08-25T02:48:16;13.07;;;10.63;;
49834;SDS011;35729;52.090;13.162;2022-08-25T02:50:45;15.23;;;11.77;;
49834;SDS011;35729;52.090;13.162;2022-08-25T02:53:16;15.63;;;12.02;;
49834;SDS011;35729;52.090;13.162;2022-08-25T02:55:46;15.40;;;12.48;;
49834;SDS011;35729;52.090;13.162;2022-08-25T02:58:14;13.68;;;11.50;;
49834;SDS011;35729;52.090;13.162;2022-08-25T03:00:46;13.10;;;11.40;;
49834;SDS011;35729;52.090;13.162;2022-08-25T03:03:16;13.67;;;11.63;;
49834;SDS011;35729;52.090;13.162;2022-08-25T03:05:46;16.75;;;11.90;;
49834;SDS011;35729;52.090;13.162;2022-08-25T03:08:15;13.35;;;11.48;;
49834;SDS011;35729;52.090;13.162;2022-08-25T03:10:43;17.33;;;11.05;;
49834;SDS011;35729;52.090;13.162;2022-08-25T03:13:12;12.65;;;11.27;;
49834;SDS011;35729;52.090;13.162;2022-08-25T03:15:41;14.27;;;11.43;;
49834;SDS011;35729;52.090;13.162;2022-08-25T03:18:12;14.35;;;11.90;;
49834;SDS011;35729;52.090;13.162;2022-08-25T03:20:41;14.15;;;11.38;;
49834;SDS011;35729;52.090;13.162;2022-08-25T03:23:09;12.68;;;11.45;;
49834;SDS011;35729;52.090;13.162;2022-08-25T03:25:39;14.05;;;11.52;;
49834;SDS011;35729;52.090;13.162;2022-08-25T03:28:20;14.40;;;12.20;;
49834;SDS011;35729;52.090;13.162;2022-08-25T03:30:48;16.45;;;12.32;;
49834;SDS011;35729;52.090;13.162;2022-08-25T03:33:20;16.35;;;12.20;;
49834;SDS011;35729;52.090;13.162;2022-08-25T03:35:48;16.67;;;12.02;;
49834;SDS011;35729;52.090;13.162;2022-08-25T03:38:17;13.90;;;12.38;;
49834;SDS011;35729;52.090;13.162;2022-08-25T03:40:45;14.88;;;12.30;;
49834;SDS011;35729;52.090;13.162;2022-08-25T03:43:14;15.48;;;12.25;;
49834;SDS011;35729;52.090;13.162;2022-08-25T03:45:43;17.92;;;12.77;;
49834;SDS011;35729;52.090;13.162;2022-08-25T03:48:12;17.67;;;13.05;;
49834;SDS011;35729;52.090;13.162;2022-08-25T03:50:48;18.23;;;13.10;;
49834;SDS011;35729;52.090;13.162;2022-08-25T03:53:19;14.38;;;12.77;;
49834;SDS011;35729;52.090;13.162;2022-08-25T03:55:47;16.75;;;13.30;;
49834;SDS011;35729;52.090;13.162;2022-08-25T03:58:16;18.55;;;12.98;;
49834;SDS011;35729;52.090;13.162;2022-08-25T04:00:45;16.00;;;13.10;;
49834;SDS011;35729;52.090;13.162;2022-08-25T04:03:13;18.77;;;13.57;;
49834;SDS011;35729;52.090;13.162;2022-08-25T04:05:42;14.55;;;13.05;;
49834;SDS011;35729;52.090;13.162;2022-08-25T04:08:13;15.77;;;13.82;;
49834;SDS011;35729;52.090;13.162;2022-08-25T04:10:43;16.50;;;14.32;;
49834;SDS011;35729;52.090;13.162;2022-08-25T04:13:12;21.83;;;16.88;;
49834;SDS011;35729;52.090;13.162;2022-08-25T04:15:41;19.60;;;15.35;;
49834;SDS011;35729;52.090;13.162;2022-08-25T04:18:10;17.52;;;14.52;;
49834;SDS011;35729;52.090;13.162;2022-08-25T04:20:38;15.00;;;13.43;;
49834;SDS011;35729;52.090;13.162;2022-08-25T04:23:07;15.82;;;14.10;;
49834;SDS011;35729;52.090;13.162;2022-08-25T04:25:40;19.08;;;13.43;;
49834;SDS011;35729;52.090;13.162;2022-08-25T04:28:16;17.63;;;14.32;;
49834;SDS011;35729;52.090;13.162;2022-08-25T04:30:44;19.20;;;13.43;;
49834;SDS011;35729;52.090;13.162;2022-08-25T04:33:13;17.13;;;14.15;;
49834;SDS011;35729;52.090;13.162;2022-08-25T04:35:45;16.95;;;14.50;;
49834;SDS011;35729;52.090;13.162;2022-08-25T04:38:15;23.57;;;15.60;;
49834;SDS011;35729;52.090;13.162;2022-08-25T04:40:46;16.27;;;13.15;;
49834;SDS011;35729;52.090;13.162;2022-08-25T04:43:23;17.02;;;13.00;;
49834;SDS011;35729;52.090;13.162;2022-08-25T04:45:52;20.90;;;13.00;;
49834;SDS011;35729;52.090;13.162;2022-08-25T04:48:21;14.88;;;12.30;;
49834;SDS011;35729;52.090;13.162;2022-08-25T04:50:49;15.32;;;12.50;;
49834;SDS011;35729;52.090;13.162;2022-08-25T04:53:18;15.02;;;12.07;;
49834;SDS011;35729;52.090;13.162;2022-08-25T04:55:49;15.23;;;13.25;;
49834;SDS011;35729;52.090;13.162;2022-08-25T04:58:18;15.15;;;11.80;;
49834;SDS011;35729;52.090;13.162;2022-08-25T05:00:47;14.20;;;11.90;;
49834;SDS011;35729;52.090;13.162;2022-08-25T05:03:16;20.15;;;13.02;;
49834;SDS011;35729;52.090;13.162;2022-08-25T05:05:45;17.80;;;12.93;;
49834;SDS011;35729;52.090;13.162;2022-08-25T05:08:14;16.25;;;14.15;;
49834;SDS011;35729;52.090;13.162;2022-08-25T05:10:42;17.65;;;14.25;;
49834;SDS011;35729;52.090;13.162;2022-08-25T05:13:13;17.52;;;13.60;;
49834;SDS011;35729;52.090;13.162;2022-08-25T05:15:42;18.95;;;15.18;;
49834;SDS011;35729;52.090;13.162;2022-08-25T05:18:17;18.75;;;14.23;;
49834;SDS011;35729;52.090;13.162;2022-08-25T05:20:47;18.83;;;14.40;;
49834;SDS011;35729;52.090;13.162;2022-08-25T05:23:16;15.75;;;13.32;;
49834;SDS011;35729;52.090;13.162;2022-08-25T05:25:44;18.58;;;13.80;;
49834;SDS011;35729;52.090;13.162;2022-08-25T05:28:16;15.93;;;13.27;;
49834;SDS011;35729;52.090;13.162;2022-08-25T05:30:45;22.90;;;14.50;;
49834;SDS011;35729;52.090;13.162;2022-08-25T05:33:15;19.77;;;14.60;;
49834;SDS011;35729;52.090;13.162;2022-08-25T05:35:44;21.98;;;14.13;;
49834;SDS011;35729;52.090;13.162;2022-08-25T05:38:12;20.38;;;14.25;;
49834;SDS011;35729;52.090;13.162;2022-08-25T05:40:41;22.38;;;14.77;;
49834;SDS011;35729;52.090;13.162;2022-08-25T05:43:09;24.35;;;15.93;;
49834;SDS011;35729;52.090;13.162;2022-08-25T05:45:42;21.20;;;16.25;;
49834;SDS011;35729;52.090;13.162;2022-08-25T05:48:11;16.58;;;13.35;;
49834;SDS011;35729;52.090;13.162;2022-08-25T05:50:39;20.42;;;14.10;;
49834;SDS011;35729;52.090;13.162;2022-08-25T05:53:08;18.15;;;13.50;;
49834;SDS011;35729;52.090;13.162;2022-08-25T05:55:36;20.88;;;13.65;;
49834;SDS011;35729;52.090;13.162;2022-08-25T05:58:05;17.00;;;13.23;;
49834;SDS011;35729;52.090;13.162;2022-08-25T06:00:33;19.48;;;14.35;;
49834;SDS011;35729;52.090;13.162;2022-08-25T06:03:04;15.02;;;12.93;;
49834;SDS011;35729;52.090;13.162;2022-08-25T06:05:31;20.80;;;13.93;;
49834;SDS011;35729;52.090;13.162;2022-08-25T06:08:00;19.85;;;13.90;;
49834;SDS011;35729;52.090;13.162;2022-08-25T06:10:29;20.60;;;13.93;;
49834;SDS011;35729;52.090;13.162;2022-08-25T06:12:58;15.73;;;13.05;;
49834;SDS011;35729;52.090;13.162;2022-08-25T06:15:27;20.48;;;15.00;;
49834;SDS011;35729;52.090;13.162;2022-08-25T06:17:56;19.27;;;15.13;;
49834;SDS011;35729;52.090;13.162;2022-08-25T06:20:29;20.95;;;14.20;;
49834;SDS011;35729;52.090;13.162;2022-08-25T06:22:58;22.25;;;15.13;;
49834;SDS011;35729;52.090;13.162;2022-08-25T06:25:27;20.15;;;15.68;;
49834;SDS011;35729;52.090;13.162;2022-08-25T06:27:57;23.33;;;15.75;;
49834;SDS011;35729;52.090;13.162;2022-08-25T06:30:26;18.13;;;14.82;;
49834;SDS011;35729;52.090;13.162;2022-08-25T06:32:55;19.77;;;15.75;;
49834;SDS011;35729;52.090;13.162;2022-08-25T06:35:23;21.23;;;16.67;;
49834;SDS011;35729;52.090;13.162;2022-08-25T06:37:54;26.73;;;17.23;;
49834;SDS011;35729;52.090;13.162;2022-08-25T06:40:23;21.80;;;17.92;;
49834;SDS011;35729;52.090;13.162;2022-08-25T06:42:51;19.65;;;16.27;;
49834;SDS011;35729;52.090;13.162;2022-08-25T06:45:20;19.15;;;16.52;;
49834;SDS011;35729;52.090;13.162;2022-08-25T06:47:48;23.00;;;17.98;;
49834;SDS011;35729;52.090;13.162;2022-08-25T06:50:18;24.42;;;17.55;;
49834;SDS011;35729;52.090;13.162;2022-08-25T06:52:47;24.20;;;17.55;;
49834;SDS011;35729;52.090;13.162;2022-08-25T06:55:18;24.08;;;18.23;;
49834;SDS011;35729;52.090;13.162;2022-08-25T06:57:47;24.50;;;17.75;;
49834;SDS011;35729;52.090;13.162;2022-08-25T07:00:16;25.63;;;18.10;;
49834;SDS011;35729;52.090;13.162;2022-08-25T07:02:44;20.50;;;17.00;;
49834;SDS011;35729;52.090;13.162;2022-08-25T07:05:13;22.23;;;17.10;;
49834;SDS011;35729;52.090;13.162;2022-08-25T07:07:41;22.73;;;18.00;;
49834;SDS011;35729;52.090;13.162;2022-08-25T07:10:11;22.75;;;17.85;;
49834;SDS011;35729;52.090;13.162;2022-08-25T07:12:42;21.25;;;17.13;;
49834;SDS011;35729;52.090;13.162;2022-08-25T07:15:11;22.98;;;17.50;;
49834;SDS011;35729;52.090;13.162;2022-08-25T07:17:47;21.10;;;17.02;;
49834;SDS011;35729;52.090;13.162;2022-08-25T07:20:16;21.67;;;16.58;;
49834;SDS011;35729;52.090;13.162;2022-08-25T07:22:45;20.40;;;17.35;;
49834;SDS011;35729;52.090;13.162;2022-08-25T07:25:13;21.13;;;17.08;;
49834;SDS011;35729;52.090;13.162;2022-08-25T07:27:45;21.48;;;15.38;;
49834;SDS011;35729;52.090;13.162;2022-08-25T07:30:13;21.35;;;15.88;;
49834;SDS011;35729;52.090;13.162;2022-08-25T07:32:43;17.40;;;15.55;;
49834;SDS011;35729;52.090;13.162;2022-08-25T07:35:12;18.38;;;16.30;;
49834;SDS011;35729;52.090;13.162;2022-08-25T07:37:41;17.63;;;15.77;;
49834;SDS011;35729;52.090;13.162;2022-08-25T07:40:12;18.95;;;15.43;;
49834;SDS011;35729;52.090;13.162;2022-08-25T07:42:41;20.50;;;15.93;;
49834;SDS011;35729;52.090;13.162;2022-08-25T07:45:13;16.52;;;14.85;;
49834;SDS011;35729;52.090;13.162;2022-08-25T07:47:41;19.85;;;15.80;;
49834;SDS011;35729;52.090;13.162;2022-08-25T07:50:11;17.92;;;15.57;;
49834;SDS011;35729;52.090;13.162;2022-08-25T07:52:40;19.48;;;16.50;;
49834;SDS011;35729;52.090;13.162;2022-08-25T07:55:09;21.15;;;15.93;;
49834;SDS011;35729;52.090;13.162;2022-08-25T07:57:38;16.48;;;14.70;;
49834;SDS011;35729;52.090;13.162;2022-08-25T08:00:11;20.90;;;15.65;;
49834;SDS011;35729;52.090;13.162;2022-08-25T08:02:41;20.50;;;14.90;;
49834;SDS011;35729;52.090;13.162;2022-08-25T08:05:11;19.40;;;15.20;;
49834;SDS011;35729;52.090;13.162;2022-08-25T08:07:41;22.67;;;15.35;;
49834;SDS011;35729;52.090;13.162;2022-08-25T08:10:10;19.48;;;15.25;;
49834;SDS011;35729;52.090;13.162;2022-08-25T08:12:41;17.38;;;15.55;;
49834;SDS011;35729;52.090;13.162;2022-08-25T08:15:12;16.13;;;14.20;;
49834;SDS011;35729;52.090;13.162;2022-08-25T08:17:41;20.48;;;14.40;;
49834;SDS011;35729;52.090;13.162;2022-08-25T08:20:10;20.92;;;14.57;;
49834;SDS011;35729;52.090;13.162;2022-08-25T08:22:41;19.38;;;14.05;;
49834;SDS011;35729;52.090;13.162;2022-08-25T08:25:10;20.80;;;14.50;;
49834;SDS011;35729;52.090;13.162;2022-08-25T08:27:39;17.38;;;14.45;;
49834;SDS011;35729;52.090;13.162;2022-08-25T08:30:13;20.13;;;14.50;;
49834;SDS011;35729;52.090;13.162;2022-08-25T08:32:42;20.13;;;14.98;;
49834;SDS011;35729;52.090;13.162;2022-08-25T08:35:10;17.30;;;14.60;;
49834;SDS011;35729;52.090;13.162;2022-08-25T08:37:41;19.05;;;13.88;;
49834;SDS011;35729;52.090;13.162;2022-08-25T08:40:10;16.33;;;13.68;;
49834;SDS011;35729;52.090;13.162;2022-08-25T08:42:46;18.38;;;13.80;;
49834;SDS011;35729;52.090;13.162;2022-08-25T08:45:27;19.52;;;14.65;;
49834;SDS011;35729;52.090;13.162;2022-08-25T08:51:06;18.00;;;13.48;;
49834;SDS011;35729;52.090;13.162;2022-08-25T08:53:47;19.60;;;13.93;;
49834;SDS011;35729;52.090;13.162;2022-08-25T08:56:20;14.30;;;12.77;;
49834;SDS011;35729;52.090;13.162;2022-08-25T08:58:54;21.60;;;12.98;;
49834;SDS011;35729;52.090;13.162;2022-08-25T09:01:29;19.50;;;14.10;;
49834;SDS011;35729;52.090;13.162;2022-08-25T09:04:02;20.90;;;13.68;;
49834;SDS011;35729;52.090;13.162;2022-08-25T09:06:36;16.23;;;13.02;;
49834;SDS011;35729;52.090;13.162;2022-08-25T09:09:09;16.37;;;12.63;;
49834;SDS011;35729;52.090;13.162;2022-08-25T09:11:45;15.88;;;12.65;;
49834;SDS011;35729;52.090;13.162;2022-08-25T09:14:25;16.58;;;12.68;;
49834;SDS011;35729;52.090;13.162;2022-08-25T09:17:08;15.00;;;12.80;;
49834;SDS011;35729;52.090;13.162;2022-08-25T09:22:37;15.98;;;11.27;;
49834;SDS011;35729;52.090;13.162;2022-08-25T09:25:17;18.48;;;11.77;;
49834;SDS011;35729;52.090;13.162;2022-08-25T09:27:56;15.60;;;11.98;;
49834;SDS011;35729;52.090;13.162;2022-08-25T09:30:36;13.57;;;11.60;;
49834;SDS011;35729;52.090;13.162;2022-08-25T09:33:17;14.48;;;11.60;;
49834;SDS011;35729;52.090;13.162;2022-08-25T09:35:48;12.52;;;11.07;;
49834;SDS011;35729;52.090;13.162;2022-08-25T09:38:18;16.73;;;11.52;;
49834;SDS011;35729;52.090;13.162;2022-08-25T09:40:48;17.83;;;11.85;;
49834;SDS011;35729;52.090;13.162;2022-08-25T09:43:19;15.18;;;11.18;;
49834;SDS011;35729;52.090;13.162;2022-08-25T09:45:57;13.82;;;10.93;;
49834;SDS011;35729;52.090;13.162;2022-08-25T09:48:31;13.73;;;11.90;;
49834;SDS011;35729;52.090;13.162;2022-08-25T09:51:11;13.35;;;10.88;;
49834;SDS011;35729;52.090;13.162;2022-08-25T09:53:48;14.13;;;10.65;;
49834;SDS011;35729;52.090;13.162;2022-08-25T09:56:21;12.02;;;10.80;;
49834;SDS011;35729;52.090;13.162;2022-08-25T09:58:51;14.77;;;10.73;;
49834;SDS011;35729;52.090;13.162;2022-08-25T10:01:21;14.40;;;10.57;;
49834;SDS011;35729;52.090;13.162;2022-08-25T10:03:58;12.25;;;10.27;;
49834;SDS011;35729;52.090;13.162;2022-08-25T10:06:29;11.75;;;10.43;;
49834;SDS011;35729;52.090;13.162;2022-08-25T10:09:03;14.88;;;10.60;;
49834;SDS011;35729;52.090;13.162;2022-08-25T10:11:36;13.57;;;11.25;;
49834;SDS011;35729;52.090;13.162;2022-08-25T10:14:14;13.18;;;9.13;;
49834;SDS011;35729;52.090;13.162;2022-08-25T10:16:46;17.70;;;10.43;;
49834;SDS011;35729;52.090;13.162;2022-08-25T10:19:25;12.52;;;9.18;;
49834;SDS011;35729;52.090;13.162;2022-08-25T10:22:05;14.00;;;9.55;;
49834;SDS011;35729;52.090;13.162;2022-08-25T10:24:36;12.32;;;9.85;;
49834;SDS011;35729;52.090;13.162;2022-08-25T10:27:09;11.50;;;9.73;;
49834;SDS011;35729;52.090;13.162;2022-08-25T10:29:53;15.73;;;10.52;;
49834;SDS011;35729;52.090;13.162;2022-08-25T10:32:33;17.10;;;10.63;;
49834;SDS011;35729;52.090;13.162;2022-08-25T10:35:14;15.43;;;10.85;;
49834;SDS011;35729;52.090;13.162;2022-08-25T10:37:50;17.70;;;11.48;;
49834;SDS011;35729;52.090;13.162;2022-08-25T10:40:32;13.18;;;10.30;;
49834;SDS011;35729;52.090;13.162;2022-08-25T10:43:10;16.80;;;11.93;;
49834;SDS011;35729;52.090;13.162;2022-08-25T10:46:02;15.65;;;10.00;;
49834;SDS011;35729;52.090;13.162;2022-08-25T10:51:34;13.10;;;10.00;;
49834;SDS011;35729;52.090;13.162;2022-08-25T10:54:12;15.55;;;9.80;;
49834;SDS011;35729;52.090;13.162;2022-08-25T10:56:52;15.30;;;10.35;;
49834;SDS011;35729;52.090;13.162;2022-08-25T10:59:31;10.48;;;9.40;;
49834;SDS011;35729;52.090;13.162;2022-08-25T11:05:22;14.73;;;9.90;;
49834;SDS011;35729;52.090;13.162;2022-08-25T11:07:57;14.02;;;9.65;;
49834;SDS011;35729;52.090;13.162;2022-08-25T11:10:35;14.38;;;10.25;;
49834;SDS011;35729;52.090;13.162;2022-08-25T11:13:12;11.98;;;8.90;;
49834;SDS011;35729;52.090;13.162;2022-08-25T11:15:48;11.00;;;9.77;;
49834;SDS011;35729;52.090;13.162;2022-08-25T11:18:20;13.10;;;9.98;;
49834;SDS011;35729;52.090;13.162;2022-08-25T11:20:56;12.25;;;9.50;;
49834;SDS011;35729;52.090;13.162;2022-08-25T11:23:34;12.73;;;9.45;;
49834;SDS011;35729;52.090;13.162;2022-08-25T11:26:07;14.55;;;9.38;;
49834;SDS011;35729;52.090;13.162;2022-08-25T11:28:49;12.80;;;9.60;;
49834;SDS011;35729;52.090;13.162;2022-08-25T11:31:21;15.82;;;8.30;;
49834;SDS011;35729;52.090;13.162;2022-08-25T11:33:52;12.80;;;8.60;;
49834;SDS011;35729;52.090;13.162;2022-08-25T11:36:24;15.77;;;10.25;;
49834;SDS011;35729;52.090;13.162;2022-08-25T11:39:03;12.52;;;8.02;;
49834;SDS011;35729;52.090;13.162;2022-08-25T11:41:45;13.02;;;7.70;;
49834;SDS011;35729;52.090;13.162;2022-08-25T11:47:26;12.27;;;7.75;;
49834;SDS011;35729;52.090;13.162;2022-08-25T11:52:43;10.75;;;7.80;;
49834;SDS011;35729;52.090;13.162;2022-08-25T11:55:18;16.75;;;8.05;;
49834;SDS011;35729;52.090;13.162;2022-08-25T11:57:49;10.45;;;8.45;;
49834;SDS011;35729;52.090;13.162;2022-08-25T12:06:20;10.18;;;7.32;;
49834;SDS011;35729;52.090;13.162;2022-08-25T12:11:49;9.95;;;7.20;;
49834;SDS011;35729;52.090;13.162;2022-08-25T12:17:08;10.32;;;6.40;;
49834;SDS011;35729;52.090;13.162;2022-08-25T12:19:52;12.77;;;6.95;;
49834;SDS011;35729;52.090;13.162;2022-08-25T12:25:19;9.88;;;5.85;;
49834;SDS011;35729;52.090;13.162;2022-08-25T12:28:03;8.90;;;5.57;;
49834;SDS011;35729;52.090;13.162;2022-08-25T12:30:38;12.43;;;6.97;;
49834;SDS011;35729;52.090;13.162;2022-08-25T12:33:15;11.73;;;6.30;;
49834;SDS011;35729;52.090;13.162;2022-08-25T12:35:57;9.70;;;6.32;;
49834;SDS011;35729;52.090;13.162;2022-08-25T12:38:27;13.07;;;6.53;;
49834;SDS011;35729;52.090;13.162;2022-08-25T12:41:02;10.45;;;5.72;;
49834;SDS011;35729;52.090;13.162;2022-08-25T12:43:37;12.63;;;5.63;;
49834;SDS011;35729;52.090;13.162;2022-08-25T12:49:04;10.80;;;6.75;;
49834;SDS011;35729;52.090;13.162;2022-08-25T12:51:43;15.77;;;6.18;;
49834;SDS011;35729;52.090;13.162;2022-08-25T12:54:19;11.13;;;6.28;;
49834;SDS011;35729;52.090;13.162;2022-08-25T12:56:54;11.52;;;6.03;;
49834;SDS011;35729;52.090;13.162;2022-08-25T12:59:35;10.90;;;6.00;;
49834;SDS011;35729;52.090;13.162;2022-08-25T13:02:15;12.95;;;5.95;;
49834;SDS011;35729;52.090;13.162;2022-08-25T13:05:12;9.82;;;5.85;;
49834;SDS011;35729;52.090;13.162;2022-08-25T13:08:00;9.93;;;5.37;;
49834;SDS011;35729;52.090;13.162;2022-08-25T13:10:49;9.45;;;6.22;;
49834;SDS011;35729;52.090;13.162;2022-08-25T13:13:23;9.43;;;5.38;;
49834;SDS011;35729;52.090;13.162;2022-08-25T13:16:08;10.52;;;5.90;;
49834;SDS011;35729;52.090;13.162;2022-08-25T13:18:43;11.20;;;5.90;;
49834;SDS011;35729;52.090;13.162;2022-08-25T13:21:14;11.00;;;6.32;;
49834;SDS011;35729;52.090;13.162;2022-08-25T13:23:45;15.45;;;6.22;;
49834;SDS011;35729;52.090;13.162;2022-08-25T13:26:16;9.20;;;5.72;;
49834;SDS011;35729;52.090;13.162;2022-08-25T13:28:54;13.13;;;5.88;;
49834;SDS011;35729;52.090;13.162;2022-08-25T13:31:28;14.27;;;7.15;;
49834;SDS011;35729;52.090;13.162;2022-08-25T13:33:58;12.25;;;6.57;;
49834;SDS011;35729;52.090;13.162;2022-08-25T13:36:30;9.73;;;6.20;;
49834;SDS011;35729;52.090;13.162;2022-08-25T13:39:14;16.73;;;5.95;;
49834;SDS011;35729;52.090;13.162;2022-08-25T13:41:46;12.97;;;5.90;;
49834;SDS011;35729;52.090;13.162;2022-08-25T13:44:17;11.93;;;5.88;;
49834;SDS011;35729;52.090;13.162;2022-08-25T13:46:50;11.05;;;6.00;;
49834;SDS011;35729;52.090;13.162;2022-08-25T13:49:33;11.38;;;5.68;;
49834;SDS011;35729;52.090;13.162;2022-08-25T13:52:02;11.98;;;5.50;;
49834;SDS011;35729;52.090;13.162;2022-08-25T13:54:34;12.77;;;5.30;;
49834;SDS011;35729;52.090;13.162;2022-08-25T13:57:05;12.48;;;5.78;;
49834;SDS011;35729;52.090;13.162;2022-08-25T13:59:39;15.77;;;6.50;;
49834;SDS011;35729;52.090;13.162;2022-08-25T14:02:12;13.02;;;5.38;;
49834;SDS011;35729;52.090;13.162;2022-08-25T14:04:45;13.90;;;5.82;;
49834;SDS011;35729;52.090;13.162;2022-08-25T14:07:26;9.57;;;5.68;;
49834;SDS011;35729;52.090;13.162;2022-08-25T14:09:57;10.90;;;5.22;;
49834;SDS011;35729;52.090;13.162;2022-08-25T14:12:29;12.65;;;6.88;;
49834;SDS011;35729;52.090;13.162;2022-08-25T14:15:01;11.07;;;5.93;;
49834;SDS011;35729;52.090;13.162;2022-08-25T14:17:35;10.45;;;5.40;;
49834;SDS011;35729;52.090;13.162;2022-08-25T14:20:17;16.55;;;6.25;;
49834;SDS011;35729;52.090;13.162;2022-08-25T14:22:52;10.07;;;5.75;;
49834;SDS011;35729;52.090;13.162;2022-08-25T14:25:24;16.17;;;6.88;;
49834;SDS011;35729;52.090;13.162;2022-08-25T14:27:54;11.25;;;6.05;;
49834;SDS011;35729;52.090;13.162;2022-08-25T14:30:23;10.98;;;5.85;;
49834;SDS011;35729;52.090;13.162;2022-08-25T14:32:54;11.10;;;6.07;;
49834;SDS011;35729;52.090;13.162;2022-08-25T14:35:23;16.63;;;6.43;;
49834;SDS011;35729;52.090;13.162;2022-08-25T14:37:53;19.75;;;6.47;;
49834;SDS011;35729;52.090;13.162;2022-08-25T14:40:22;16.17;;;5.97;;
49834;SDS011;35729;52.090;13.162;2022-08-25T14:42:51;11.98;;;5.72;;
49834;SDS011;35729;52.090;13.162;2022-08-25T14:45:19;16.60;;;5.75;;
49834;SDS011;35729;52.090;13.162;2022-08-25T14:47:48;9.95;;;7.30;;
49834;SDS011;35729;52.090;13.162;2022-08-25T14:50:19;14.70;;;8.20;;
49834;SDS011;35729;52.090;13.162;2022-08-25T14:52:48;15.55;;;6.03;;
49834;SDS011;35729;52.090;13.162;2022-08-25T14:55:16;13.98;;;5.75;;
49834;SDS011;35729;52.090;13.162;2022-08-25T14:57:45;10.30;;;5.55;;
49834;SDS011;35729;52.090;13.162;2022-08-25T15:00:14;13.75;;;5.32;;
49834;SDS011;35729;52.090;13.162;2022-08-25T15:02:42;9.98;;;5.63;;
49834;SDS011;35729;52.090;13.162;2022-08-25T15:05:16;14.07;;;5.93;;
49834;SDS011;35729;52.090;13.162;2022-08-25T15:07:53;15.05;;;4.97;;
49834;SDS011;35729;52.090;13.162;2022-08-25T15:10:34;12.35;;;5.82;;
49834;SDS011;35729;52.090;13.162;2022-08-25T15:13:03;17.48;;;6.00;;
49834;SDS011;35729;52.090;13.162;2022-08-25T15:15:32;10.13;;;4.65;;